Lindenholt, Netherlands
Current Conditions -  °F | °C
As of 9:55 PM on Tuesday 21 Oct 2014 (Local Time) from EHVK Reporting Station
Light Rain Light Rain  
Wind Chill: 42°   Ceiling: 4400
Heat Index: 46°   Visibility: 6mi
Dew Point: 43°   Wind: 9mph
Humidity: 87%   Direction: 280°W
Pressure: 29.71"   Gusts: NA
Location:  51.83°N, 5.79°E
Report Text: EHVK 211955Z AUTO 28008KT 9999 -RA FEW010 FEW015TCU BKN044 OVC050 08/06 Q1006 BLU
Loading
Personal Weather Stations






























Interactive Weather Map
Tropical Storm Tracking
New forecast layout! Learn more

10-Day Weather Forecast

Advertisements
Track Severe Weather on mobile